sensor_id;sensor_type;location;lat;lon;timestamp;pressure;altitude;pressure_sealevel;temperature;humidity
70902;BME280;58548;47.210;8.618;2023-11-21T00:01:10;93605.88;;;17.22;30.58
70902;BME280;58548;47.210;8.618;2023-11-21T00:03:37;93597.50;;;17.25;30.96
70902;BME280;58548;47.210;8.618;2023-11-21T00:06:04;93689.44;;;17.90;30.87
70902;BME280;58548;47.210;8.618;2023-11-21T00:08:34;93682.88;;;17.92;30.73
70902;BME280;58548;47.210;8.618;2023-11-21T00:11:05;93653.00;;;17.70;30.52
70902;BME280;58548;47.210;8.618;2023-11-21T00:13:34;93625.84;;;17.52;30.15
70902;BME280;58548;47.210;8.618;2023-11-21T00:16:03;93576.47;;;17.30;30.39
70902;BME280;58548;47.210;8.618;2023-11-21T00:18:32;93552.50;;;17.15;30.66
70902;BME280;58548;47.210;8.618;2023-11-21T00:20:58;93640.69;;;17.58;30.81
70902;BME280;58548;47.210;8.618;2023-11-21T00:23:26;93642.53;;;17.58;30.64
70902;BME280;58548;47.210;8.618;2023-11-21T00:25:54;93641.19;;;17.55;30.88
70902;BME280;58548;47.210;8.618;2023-11-21T00:28:25;93558.69;;;17.03;30.85
70902;BME280;58548;47.210;8.618;2023-11-21T00:30:51;93648.34;;;17.77;31.00
70902;BME280;58548;47.210;8.618;2023-11-21T00:33:17;93656.19;;;17.72;30.85
70902;BME280;58548;47.210;8.618;2023-11-21T00:35:44;93570.41;;;17.13;31.12
70902;BME280;58548;47.210;8.618;2023-11-21T00:38:14;93565.63;;;17.10;30.86
70902;BME280;58548;47.210;8.618;2023-11-21T00:40:40;93567.22;;;17.11;31.01
70902;BME280;58548;47.210;8.618;2023-11-21T00:43:06;93572.78;;;17.31;31.02
70902;BME280;58548;47.210;8.618;2023-11-21T00:45:34;93664.84;;;17.89;31.19
70902;BME280;58548;47.210;8.618;2023-11-21T00:48:02;93660.44;;;17.95;30.95
70902;BME280;58548;47.210;8.618;2023-11-21T00:50:31;93569.69;;;17.40;30.49
70902;BME280;58548;47.210;8.618;2023-11-21T00:52:59;93555.56;;;17.29;30.51
70902;BME280;58548;47.210;8.618;2023-11-21T00:55:25;93587.56;;;17.55;30.85
70902;BME280;58548;47.210;8.618;2023-11-21T00:57:53;93546.47;;;17.37;30.85
70902;BME280;58548;47.210;8.618;2023-11-21T01:00:21;93537.91;;;17.29;30.53
70902;BME280;58548;47.210;8.618;2023-11-21T01:02:49;93575.41;;;17.54;30.26
70902;BME280;58548;47.210;8.618;2023-11-21T01:05:14;93639.47;;;17.88;30.16
70902;BME280;58548;47.210;8.618;2023-11-21T01:07:41;93637.66;;;17.89;30.91
70902;BME280;58548;47.210;8.618;2023-11-21T01:10:09;93651.56;;;18.01;30.56
70902;BME280;58548;47.210;8.618;2023-11-21T01:12:37;93553.56;;;17.36;30.92
70902;BME280;58548;47.210;8.618;2023-11-21T01:15:06;93636.53;;;17.85;30.45
70902;BME280;58548;47.210;8.618;2023-11-21T01:17:33;93646.38;;;17.89;31.03
70902;BME280;58548;47.210;8.618;2023-11-21T01:20:02;93613.94;;;17.72;30.57
70902;BME280;58548;47.210;8.618;2023-11-21T01:22:36;93653.88;;;17.98;30.62
70902;BME280;58548;47.210;8.618;2023-11-21T01:25:02;93559.09;;;17.35;31.00
70902;BME280;58548;47.210;8.618;2023-11-21T01:27:38;93546.31;;;17.26;30.12
70902;BME280;58548;47.210;8.618;2023-11-21T01:30:05;93553.75;;;17.29;30.19
70902;BME280;58548;47.210;8.618;2023-11-21T01:32:33;93652.41;;;17.85;30.47
70902;BME280;58548;47.210;8.618;2023-11-21T01:35:04;93652.75;;;17.93;30.96
70902;BME280;58548;47.210;8.618;2023-11-21T01:37:33;93569.78;;;17.45;30.46
70902;BME280;58548;47.210;8.618;2023-11-21T01:40:01;93637.03;;;18.04;30.47
70902;BME280;58548;47.210;8.618;2023-11-21T01:42:34;93635.44;;;18.03;30.88
70902;BME280;58548;47.210;8.618;2023-11-21T01:45:03;93636.75;;;18.00;30.47
70902;BME280;58548;47.210;8.618;2023-11-21T01:47:33;93536.56;;;17.49;30.41
70902;BME280;58548;47.210;8.618;2023-11-21T01:50:02;93590.97;;;17.94;30.57
70902;BME280;58548;47.210;8.618;2023-11-21T01:52:30;93622.09;;;18.15;30.34
70902;BME280;58548;47.210;8.618;2023-11-21T01:55:00;93618.06;;;18.07;30.15
70902;BME280;58548;47.210;8.618;2023-11-21T01:57:26;93626.47;;;18.04;30.78
70902;BME280;58548;47.210;8.618;2023-11-21T01:59:54;93527.34;;;17.29;30.57
70902;BME280;58548;47.210;8.618;2023-11-21T02:02:20;93631.63;;;17.93;30.52
70902;BME280;58548;47.210;8.618;2023-11-21T02:04:48;93634.47;;;17.87;30.39
70902;BME280;58548;47.210;8.618;2023-11-21T02:07:14;93632.13;;;17.90;29.88
70902;BME280;58548;47.210;8.618;2023-11-21T02:09:44;93523.16;;;17.11;30.43
70902;BME280;58548;47.210;8.618;2023-11-21T02:12:11;93540.66;;;17.17;30.34
70902;BME280;58548;47.210;8.618;2023-11-21T02:14:41;93547.84;;;17.22;30.24
70902;BME280;58548;47.210;8.618;2023-11-21T02:17:08;93527.16;;;17.14;30.70
70902;BME280;58548;47.210;8.618;2023-11-21T02:19:38;93522.97;;;17.18;30.21
70902;BME280;58548;47.210;8.618;2023-11-21T02:22:07;93591.88;;;17.61;30.67
70902;BME280;58548;47.210;8.618;2023-11-21T02:24:34;93505.50;;;17.12;30.67
70902;BME280;58548;47.210;8.618;2023-11-21T02:26:59;93518.25;;;17.20;30.29
70902;BME280;58548;47.210;8.618;2023-11-21T02:29:26;93606.09;;;17.77;30.81
70902;BME280;58548;47.210;8.618;2023-11-21T02:31:55;93510.81;;;17.17;30.70
70902;BME280;58548;47.210;8.618;2023-11-21T02:34:23;93622.53;;;17.84;30.53
70902;BME280;58548;47.210;8.618;2023-11-21T02:36:50;93606.19;;;17.87;30.55
70902;BME280;58548;47.210;8.618;2023-11-21T02:39:17;93591.94;;;17.88;31.06
70902;BME280;58548;47.210;8.618;2023-11-21T02:41:47;93588.44;;;17.83;30.99
70902;BME280;58548;47.210;8.618;2023-11-21T02:44:18;93525.03;;;17.55;31.06
70902;BME280;58548;47.210;8.618;2023-11-21T02:46:44;93601.03;;;17.98;31.56
70902;BME280;58548;47.210;8.618;2023-11-21T02:49:10;93500.78;;;17.36;31.56
70902;BME280;58548;47.210;8.618;2023-11-21T02:51:38;93597.38;;;17.99;31.40
70902;BME280;58548;47.210;8.618;2023-11-21T02:54:05;93600.81;;;17.99;31.65
70902;BME280;58548;47.210;8.618;2023-11-21T02:56:32;93507.41;;;17.39;31.66
70902;BME280;58548;47.210;8.618;2023-11-21T02:59:02;93593.25;;;17.86;32.55
70902;BME280;58548;47.210;8.618;2023-11-21T03:01:31;93593.72;;;17.83;32.87
70902;BME280;58548;47.210;8.618;2023-11-21T03:03:57;93552.41;;;17.49;33.44
70902;BME280;58548;47.210;8.618;2023-11-21T03:06:25;93512.97;;;17.20;32.93
70902;BME280;58548;47.210;8.618;2023-11-21T03:08:53;93624.50;;;17.94;33.20
70902;BME280;58548;47.210;8.618;2023-11-21T03:11:19;93628.50;;;17.97;33.29
70902;BME280;58548;47.210;8.618;2023-11-21T03:13:48;93610.78;;;17.97;33.26
70902;BME280;58548;47.210;8.618;2023-11-21T03:16:15;93589.19;;;17.78;33.08
70902;BME280;58548;47.210;8.618;2023-11-21T03:18:41;93555.91;;;17.55;32.73
70902;BME280;58548;47.210;8.618;2023-11-21T03:21:08;93573.28;;;17.73;33.29
70902;BME280;58548;47.210;8.618;2023-11-21T03:23:35;93565.72;;;17.59;33.20
70902;BME280;58548;47.210;8.618;2023-11-21T03:26:03;93604.28;;;17.83;33.33
70902;BME280;58548;47.210;8.618;2023-11-21T03:28:29;93603.66;;;17.75;33.42
70902;BME280;58548;47.210;8.618;2023-11-21T03:30:58;93518.75;;;17.17;34.28
70902;BME280;58548;47.210;8.618;2023-11-21T03:33:24;93580.16;;;17.52;34.70
70902;BME280;58548;47.210;8.618;2023-11-21T03:35:55;93523.41;;;17.10;35.04
70902;BME280;58548;47.210;8.618;2023-11-21T03:38:23;93592.50;;;17.46;35.20
70902;BME280;58548;47.210;8.618;2023-11-21T03:40:49;93599.94;;;17.49;35.57
70902;BME280;58548;47.210;8.618;2023-11-21T03:43:20;93632.22;;;17.56;36.05
70902;BME280;58548;47.210;8.618;2023-11-21T03:45:48;93626.41;;;17.54;35.57
70902;BME280;58548;47.210;8.618;2023-11-21T03:48:16;93554.53;;;17.08;35.83
70902;BME280;58548;47.210;8.618;2023-11-21T03:50:42;93610.84;;;17.36;36.02
70902;BME280;58548;47.210;8.618;2023-11-21T03:53:08;93632.72;;;17.53;36.03
70902;BME280;58548;47.210;8.618;2023-11-21T03:55:39;93510.50;;;16.74;35.93
70902;BME280;58548;47.210;8.618;2023-11-21T03:58:05;93553.09;;;17.00;35.90
70902;BME280;58548;47.210;8.618;2023-11-21T04:00:31;93541.72;;;16.99;35.26
70902;BME280;58548;47.210;8.618;2023-11-21T04:02:57;93610.97;;;17.46;35.39
70902;BME280;58548;47.210;8.618;2023-11-21T04:05:23;93632.22;;;17.56;35.35
70902;BME280;58548;47.210;8.618;2023-11-21T04:07:49;93550.75;;;17.03;35.53
70902;BME280;58548;47.210;8.618;2023-11-21T04:10:16;93542.78;;;16.98;35.28
70902;BME280;58548;47.210;8.618;2023-11-21T04:12:42;93516.56;;;16.74;35.64
70902;BME280;58548;47.210;8.618;2023-11-21T04:15:08;93626.72;;;17.41;35.37
70902;BME280;58548;47.210;8.618;2023-11-21T04:17:36;93621.31;;;17.30;36.19
70902;BME280;58548;47.210;8.618;2023-11-21T04:20:06;93649.53;;;17.47;36.06
70902;BME280;58548;47.210;8.618;2023-11-21T04:22:39;93631.69;;;17.37;35.60
70902;BME280;58548;47.210;8.618;2023-11-21T04:25:10;93643.00;;;17.32;35.89
70902;BME280;58548;47.210;8.618;2023-11-21T04:27:39;93526.66;;;16.61;35.80
70902;BME280;58548;47.210;8.618;2023-11-21T04:30:06;93646.34;;;17.28;36.08
70902;BME280;58548;47.210;8.618;2023-11-21T04:32:35;93550.44;;;16.66;36.22
70902;BME280;58548;47.210;8.618;2023-11-21T04:35:03;93642.84;;;17.22;36.59
70902;BME280;58548;47.210;8.618;2023-11-21T04:37:34;93541.75;;;16.65;36.78
70902;BME280;58548;47.210;8.618;2023-11-21T04:40:03;93575.22;;;16.82;36.22
70902;BME280;58548;47.210;8.618;2023-11-21T04:42:35;93525.16;;;16.48;36.48
70902;BME280;58548;47.210;8.618;2023-11-21T04:45:07;93628.69;;;17.11;36.06
70902;BME280;58548;47.210;8.618;2023-11-21T04:47:37;93635.47;;;17.07;36.92
70902;BME280;58548;47.210;8.618;2023-11-21T04:50:08;93632.53;;;17.03;37.04
70902;BME280;58548;47.210;8.618;2023-11-21T04:52:34;93634.94;;;17.05;36.45
70902;BME280;58548;47.210;8.618;2023-11-21T04:55:00;93627.94;;;16.82;36.46
70902;BME280;58548;47.210;8.618;2023-11-21T04:57:27;93645.06;;;16.96;36.93
70902;BME280;58548;47.210;8.618;2023-11-21T04:59:56;93550.69;;;16.30;37.34
70902;BME280;58548;47.210;8.618;2023-11-21T05:02:25;93647.63;;;16.91;37.33
70902;BME280;58548;47.210;8.618;2023-11-21T05:04:57;93643.69;;;16.94;37.38
70902;BME280;58548;47.210;8.618;2023-11-21T05:07:28;93630.50;;;16.77;36.91
70902;BME280;58548;47.210;8.618;2023-11-21T05:09:55;93572.09;;;16.34;37.68
70902;BME280;58548;47.210;8.618;2023-11-21T05:12:24;93653.84;;;16.85;37.71
70902;BME280;58548;47.210;8.618;2023-11-21T05:14:51;93614.03;;;16.52;37.45
70902;BME280;58548;47.210;8.618;2023-11-21T05:17:17;93561.28;;;16.18;37.76
70902;BME280;58548;47.210;8.618;2023-11-21T05:19:42;93548.03;;;16.13;37.58
70902;BME280;58548;47.210;8.618;2023-11-21T05:22:11;93584.69;;;16.32;37.83
70902;BME280;58548;47.210;8.618;2023-11-21T05:24:39;93663.34;;;16.86;37.67
70902;BME280;58548;47.210;8.618;2023-11-21T05:27:08;93673.34;;;16.84;37.68
70902;BME280;58548;47.210;8.618;2023-11-21T05:29:36;93603.28;;;16.42;37.79
70902;BME280;58548;47.210;8.618;2023-11-21T05:32:03;93573.75;;;16.23;37.76
70902;BME280;58548;47.210;8.618;2023-11-21T05:34:29;93636.66;;;16.65;37.47
70902;BME280;58548;47.210;8.618;2023-11-21T05:36:55;93654.06;;;16.66;38.01
70902;BME280;58548;47.210;8.618;2023-11-21T05:39:23;93586.16;;;16.10;38.11
70902;BME280;58548;47.210;8.618;2023-11-21T05:41:50;93612.69;;;16.21;38.14
70902;BME280;58548;47.210;8.618;2023-11-21T05:44:20;93594.63;;;16.12;38.08
70902;BME280;58548;47.210;8.618;2023-11-21T05:46:49;93589.34;;;16.12;38.47
70902;BME280;58548;47.210;8.618;2023-11-21T05:49:15;93564.59;;;15.96;38.23
70902;BME280;58548;47.210;8.618;2023-11-21T05:51:44;93681.94;;;16.62;37.95
70902;BME280;58548;47.210;8.618;2023-11-21T05:54:13;93609.03;;;16.22;37.95
70902;BME280;58548;47.210;8.618;2023-11-21T05:56:39;93600.38;;;16.09;37.95
70902;BME280;58548;47.210;8.618;2023-11-21T05:59:07;93686.75;;;16.65;38.07
70902;BME280;58548;47.210;8.618;2023-11-21T06:01:38;93674.75;;;16.57;38.07
70902;BME280;58548;47.210;8.618;2023-11-21T06:04:09;93658.41;;;16.43;38.13
70902;BME280;58548;47.210;8.618;2023-11-21T06:06:37;93639.13;;;16.26;38.45
70902;BME280;58548;47.210;8.618;2023-11-21T06:09:05;93592.19;;;15.94;38.53
70902;BME280;58548;47.210;8.618;2023-11-21T06:11:40;93672.16;;;16.46;38.23
70902;BME280;58548;47.210;8.618;2023-11-21T06:14:08;93623.84;;;16.11;38.41
70902;BME280;58548;47.210;8.618;2023-11-21T06:16:36;93650.31;;;16.33;38.26
70902;BME280;58548;47.210;8.618;2023-11-21T06:19:06;93600.66;;;15.96;38.34
70902;BME280;58548;47.210;8.618;2023-11-21T06:21:31;93702.72;;;16.58;38.78
70902;BME280;58548;47.210;8.618;2023-11-21T06:24:00;93675.03;;;16.44;38.24
70902;BME280;58548;47.210;8.618;2023-11-21T06:26:31;93674.94;;;16.39;38.06
70902;BME280;58548;47.210;8.618;2023-11-21T06:29:00;93621.72;;;15.96;38.64
70902;BME280;58548;47.210;8.618;2023-11-21T06:31:29;93652.09;;;16.16;38.20
70902;BME280;58548;47.210;8.618;2023-11-21T06:34:00;93704.94;;;16.50;38.83
70902;BME280;58548;47.210;8.618;2023-11-21T06:36:26;93631.31;;;16.02;38.40
70902;BME280;58548;47.210;8.618;2023-11-21T06:38:52;93704.94;;;16.50;38.58
70902;BME280;58548;47.210;8.618;2023-11-21T06:41:20;93598.41;;;15.88;38.52
70902;BME280;58548;47.210;8.618;2023-11-21T06:43:46;93699.72;;;16.55;38.58
70902;BME280;58548;47.210;8.618;2023-11-21T06:46:13;93716.47;;;16.61;38.45
70902;BME280;58548;47.210;8.618;2023-11-21T06:48:42;93670.03;;;16.31;38.69
70902;BME280;58548;47.210;8.618;2023-11-21T06:51:11;93622.38;;;16.03;38.29
70902;BME280;58548;47.210;8.618;2023-11-21T06:53:40;93580.09;;;15.69;38.50
70902;BME280;58548;47.210;8.618;2023-11-21T06:56:17;93625.47;;;16.00;38.50
70902;BME280;58548;47.210;8.618;2023-11-21T06:58:45;93664.03;;;16.18;38.11
70902;BME280;58548;47.210;8.618;2023-11-21T07:01:14;93600.56;;;15.79;38.19
70902;BME280;58548;47.210;8.618;2023-11-21T07:03:43;93609.25;;;15.91;38.22
70902;BME280;58548;47.210;8.618;2023-11-21T07:06:11;93542.19;;;15.41;38.29
70902;BME280;58548;47.210;8.618;2023-11-21T07:08:41;93664.03;;;16.18;38.25
70902;BME280;58548;47.210;8.618;2023-11-21T07:11:08;93602.75;;;15.70;38.11
70902;BME280;58548;47.210;8.618;2023-11-21T07:13:34;93712.88;;;16.38;38.54
70902;BME280;58548;47.210;8.618;2023-11-21T07:15:59;93711.03;;;16.38;38.43
70902;BME280;58548;47.210;8.618;2023-11-21T07:18:26;93648.88;;;15.96;38.26
70902;BME280;58548;47.210;8.618;2023-11-21T07:20:54;93636.16;;;15.81;38.03
70902;BME280;58548;47.210;8.618;2023-11-21T07:23:24;93724.78;;;16.40;38.78
70902;BME280;58548;47.210;8.618;2023-11-21T07:25:55;93603.09;;;15.74;38.38
70902;BME280;58548;47.210;8.618;2023-11-21T07:28:24;93604.00;;;15.79;38.66
70902;BME280;58548;47.210;8.618;2023-11-21T07:30:54;93600.78;;;15.77;38.54
70902;BME280;58548;47.210;8.618;2023-11-21T07:33:20;93714.50;;;16.56;38.56
70902;BME280;58548;47.210;8.618;2023-11-21T07:35:48;93693.25;;;16.46;38.37
70902;BME280;58548;47.210;8.618;2023-11-21T07:38:16;93716.69;;;16.59;38.57
70902;BME280;58548;47.210;8.618;2023-11-21T07:40:44;93725.16;;;16.61;38.64
70902;BME280;58548;47.210;8.618;2023-11-21T07:43:10;93710.69;;;16.64;38.40
70902;BME280;58548;47.210;8.618;2023-11-21T07:45:36;93727.41;;;16.69;37.95
70902;BME280;58548;47.210;8.618;2023-11-21T07:48:04;93718.47;;;16.70;38.57
70902;BME280;58548;47.210;8.618;2023-11-21T07:50:33;93720.63;;;16.73;38.03
70902;BME280;58548;47.210;8.618;2023-11-21T07:53:01;93495.56;;;15.25;38.69
70902;BME280;58548;47.210;8.618;2023-11-21T07:55:27;93632.63;;;16.17;38.31
70902;BME280;58548;47.210;8.618;2023-11-21T07:57:57;93731.50;;;16.77;38.17
70902;BME280;58548;47.210;8.618;2023-11-21T08:00:28;93635.84;;;16.19;38.26
70902;BME280;58548;47.210;8.618;2023-11-21T08:02:56;93711.50;;;16.64;37.71
70902;BME280;58548;47.210;8.618;2023-11-21T08:05:22;93646.56;;;16.29;38.45
70902;BME280;58548;47.210;8.618;2023-11-21T08:07:51;93631.00;;;16.27;38.33
70902;BME280;58548;47.210;8.618;2023-11-21T08:10:16;93630.84;;;16.34;38.21
70902;BME280;58548;47.210;8.618;2023-11-21T08:12:45;93739.75;;;17.10;37.71
70902;BME280;58548;47.210;8.618;2023-11-21T08:15:14;93715.38;;;16.91;36.97
70902;BME280;58548;47.210;8.618;2023-11-21T08:17:42;93664.53;;;16.61;37.79
70902;BME280;58548;47.210;8.618;2023-11-21T08:20:12;93648.59;;;16.56;36.87
70902;BME280;58548;47.210;8.618;2023-11-21T08:22:43;93739.28;;;17.13;37.84
70902;BME280;58548;47.210;8.618;2023-11-21T08:25:09;93649.53;;;16.62;37.66
70902;BME280;58548;47.210;8.618;2023-11-21T08:27:38;93716.63;;;17.17;37.15
70902;BME280;58548;47.210;8.618;2023-11-21T08:30:07;93645.59;;;16.64;37.45
70902;BME280;58548;47.210;8.618;2023-11-21T08:32:33;93721.38;;;17.15;37.88
70902;BME280;58548;47.210;8.618;2023-11-21T08:35:02;93736.88;;;17.28;37.77
70902;BME280;58548;47.210;8.618;2023-11-21T08:37:36;93746.78;;;17.38;37.80
70902;BME280;58548;47.210;8.618;2023-11-21T08:40:04;93723.03;;;17.21;37.05
70902;BME280;58548;47.210;8.618;2023-11-21T08:42:35;93746.06;;;17.43;37.69
70902;BME280;58548;47.210;8.618;2023-11-21T08:45:01;93650.09;;;16.81;37.38
70902;BME280;58548;47.210;8.618;2023-11-21T08:47:29;93745.38;;;17.47;37.39
70902;BME280;58548;47.210;8.618;2023-11-21T08:49:58;93757.28;;;17.50;38.00
70902;BME280;58548;47.210;8.618;2023-11-21T08:52:24;93679.53;;;17.07;37.28
70902;BME280;58548;47.210;8.618;2023-11-21T08:54:50;93674.97;;;17.19;37.16
70902;BME280;58548;47.210;8.618;2023-11-21T08:57:24;93732.38;;;17.46;36.47
70902;BME280;58548;47.210;8.618;2023-11-21T08:59:52;93762.78;;;17.66;36.74
70902;BME280;58548;47.210;8.618;2023-11-21T09:02:21;93670.69;;;17.13;37.14
70902;BME280;58548;47.210;8.618;2023-11-21T09:04:52;93745.09;;;17.66;37.07
70902;BME280;58548;47.210;8.618;2023-11-21T09:07:19;93753.97;;;17.77;36.68
70902;BME280;58548;47.210;8.618;2023-11-21T09:09:49;93691.09;;;17.40;36.84
70902;BME280;58548;47.210;8.618;2023-11-21T09:12:17;93763.00;;;17.81;37.02
70902;BME280;58548;47.210;8.618;2023-11-21T09:14:44;93676.19;;;17.28;36.93
70902;BME280;58548;47.210;8.618;2023-11-21T09:17:13;93758.66;;;17.92;37.11
70902;BME280;58548;47.210;8.618;2023-11-21T09:19:42;93769.63;;;18.01;36.66
70902;BME280;58548;47.210;8.618;2023-11-21T09:22:10;93676.81;;;17.36;36.99
70902;BME280;58548;47.210;8.618;2023-11-21T09:24:36;93766.84;;;17.90;36.75
70902;BME280;58548;47.210;8.618;2023-11-21T09:27:03;93751.09;;;17.78;37.26
70902;BME280;58548;47.210;8.618;2023-11-21T09:29:33;93755.06;;;17.81;37.24
70902;BME280;58548;47.210;8.618;2023-11-21T09:32:00;93689.75;;;17.37;36.96
70902;BME280;58548;47.210;8.618;2023-11-21T09:34:27;93684.75;;;17.36;37.77
70902;BME280;58548;47.210;8.618;2023-11-21T09:36:55;93782.31;;;17.99;37.16
70902;BME280;58548;47.210;8.618;2023-11-21T09:39:21;93685.69;;;17.46;37.26
70902;BME280;58548;47.210;8.618;2023-11-21T09:41:56;93777.97;;;18.10;37.65
70902;BME280;58548;47.210;8.618;2023-11-21T09:47:38;93687.97;;;17.60;37.76
70902;BME280;58548;47.210;8.618;2023-11-21T09:50:07;93694.75;;;17.73;36.97
70902;BME280;58548;47.210;8.618;2023-11-21T09:55:43;93777.50;;;18.35;37.25
70902;BME280;58548;47.210;8.618;2023-11-21T09:58:10;93755.59;;;18.17;36.83
70902;BME280;58548;47.210;8.618;2023-11-21T10:00:46;93765.16;;;18.23;36.88
70902;BME280;58548;47.210;8.618;2023-11-21T10:03:12;93684.03;;;17.62;36.94
70902;BME280;58548;47.210;8.618;2023-11-21T10:05:40;93706.06;;;17.90;36.64
70902;BME280;58548;47.210;8.618;2023-11-21T10:08:11;93777.22;;;18.36;36.66
70902;BME280;58548;47.210;8.618;2023-11-21T10:10:44;93785.53;;;18.45;36.55
70902;BME280;58548;47.210;8.618;2023-11-21T10:13:16;93752.09;;;18.34;36.29
70902;BME280;58548;47.210;8.618;2023-11-21T10:15:43;93733.41;;;18.18;36.09
70902;BME280;58548;47.210;8.618;2023-11-21T10:18:15;93687.09;;;17.93;36.90
70902;BME280;58548;47.210;8.618;2023-11-21T10:20:45;93711.22;;;18.19;36.06
70902;BME280;58548;47.210;8.618;2023-11-21T10:23:21;93743.44;;;18.61;36.46
70902;BME280;58548;47.210;8.618;2023-11-21T10:25:48;93749.78;;;18.65;36.05
70902;BME280;58548;47.210;8.618;2023-11-21T10:28:18;93690.56;;;18.38;36.00
70902;BME280;58548;47.210;8.618;2023-11-21T10:30:46;93768.66;;;18.96;35.71
70902;BME280;58548;47.210;8.618;2023-11-21T10:33:15;93755.56;;;19.06;36.44
70902;BME280;58548;47.210;8.618;2023-11-21T10:35:48;93666.72;;;18.61;35.85
70902;BME280;58548;47.210;8.618;2023-11-21T10:38:23;93649.22;;;18.54;35.23
70902;BME280;58548;47.210;8.618;2023-11-21T10:40:50;93751.50;;;19.26;35.26
70902;BME280;58548;47.210;8.618;2023-11-21T10:43:24;93738.78;;;19.28;34.83
70902;BME280;58548;47.210;8.618;2023-11-21T10:45:57;93762.75;;;19.43;34.41
70902;BME280;58548;47.210;8.618;2023-11-21T10:48:26;93758.56;;;19.48;34.43
70902;BME280;58548;47.210;8.618;2023-11-21T10:50:55;93754.66;;;19.61;34.59
70902;BME280;58548;47.210;8.618;2023-11-21T10:53:24;93672.94;;;19.37;35.62
70902;BME280;58548;47.210;8.618;2023-11-21T10:56:03;93681.66;;;19.75;33.90
70902;BME280;58548;47.210;8.618;2023-11-21T10:58:32;93672.50;;;19.98;33.86
70902;BME280;58548;47.210;8.618;2023-11-21T11:00:59;93760.63;;;20.90;32.98
70902;BME280;58548;47.210;8.618;2023-11-21T11:03:26;93756.16;;;21.01;31.63
70902;BME280;58548;47.210;8.618;2023-11-21T11:05:55;93741.25;;;20.84;31.78
70902;BME280;58548;47.210;8.618;2023-11-21T11:08:22;93678.78;;;20.40;32.06
70902;BME280;58548;47.210;8.618;2023-11-21T11:10:52;93766.25;;;21.04;31.95
70902;BME280;58548;47.210;8.618;2023-11-21T11:13:21;93772.91;;;21.06;32.25
70902;BME280;58548;47.210;8.618;2023-11-21T11:15:50;93755.06;;;20.91;32.17
70902;BME280;58548;47.210;8.618;2023-11-21T11:18:21;93763.81;;;20.92;31.65
70902;BME280;58548;47.210;8.618;2023-11-21T11:20:51;93774.69;;;20.85;31.82
70902;BME280;58548;47.210;8.618;2023-11-21T11:26:08;93768.53;;;20.74;32.11
70902;BME280;58548;47.210;8.618;2023-11-21T11:28:47;93764.28;;;20.73;32.18
70902;BME280;58548;47.210;8.618;2023-11-21T11:32:01;93766.09;;;20.62;32.29
70902;BME280;58548;47.210;8.618;2023-11-21T11:34:44;93737.88;;;20.30;32.38
70902;BME280;58548;47.210;8.618;2023-11-21T11:37:14;93673.47;;;19.82;32.43
70902;BME280;58548;47.210;8.618;2023-11-21T11:39:42;93746.59;;;20.26;32.54
70902;BME280;58548;47.210;8.618;2023-11-21T11:42:13;93725.59;;;20.09;32.27
70902;BME280;58548;47.210;8.618;2023-11-21T11:50:11;93675.41;;;19.49;33.06
70902;BME280;58548;47.210;8.618;2023-11-21T11:52:55;93751.63;;;19.84;33.37
70902;BME280;58548;47.210;8.618;2023-11-21T11:55:24;93770.00;;;19.91;33.95
70902;BME280;58548;47.210;8.618;2023-11-21T11:57:52;93606.78;;;18.99;33.82
70902;BME280;58548;47.210;8.618;2023-11-21T12:02:58;93659.69;;;19.80;33.84
70902;BME280;58548;47.210;8.618;2023-11-21T12:05:31;93661.66;;;20.00;32.97
70902;BME280;58548;47.210;8.618;2023-11-21T12:08:11;93733.44;;;20.52;32.72
70902;BME280;58548;47.210;8.618;2023-11-21T12:10:39;93753.66;;;20.68;32.38
70902;BME280;58548;47.210;8.618;2023-11-21T12:13:09;93748.06;;;20.54;32.28
70902;BME280;58548;47.210;8.618;2023-11-21T12:15:38;93671.50;;;20.04;32.26
70902;BME280;58548;47.210;8.618;2023-11-21T12:18:07;93712.88;;;20.11;32.30
70902;BME280;58548;47.210;8.618;2023-11-21T12:20:33;93742.03;;;20.16;32.38
70902;BME280;58548;47.210;8.618;2023-11-21T12:23:05;93598.88;;;19.09;32.63
70902;BME280;58548;47.210;8.618;2023-11-21T12:25:31;93752.53;;;19.95;32.71
70902;BME280;58548;47.210;8.618;2023-11-21T12:27:59;93677.88;;;19.28;33.08
70902;BME280;58548;47.210;8.618;2023-11-21T12:30:30;93670.16;;;19.21;33.02
70902;BME280;58548;47.210;8.618;2023-11-21T12:33:02;93748.28;;;19.56;33.18
70902;BME280;58548;47.210;8.618;2023-11-21T12:35:34;93762.81;;;19.49;33.66
70902;BME280;58548;47.210;8.618;2023-11-21T12:38:03;93764.03;;;19.41;33.94
70902;BME280;58548;47.210;8.618;2023-11-21T12:40:31;93657.88;;;18.77;34.39
70902;BME280;58548;47.210;8.618;2023-11-21T12:42:59;93669.41;;;18.93;34.59
70902;BME280;58548;47.210;8.618;2023-11-21T12:45:27;93762.09;;;19.64;33.72
70902;BME280;58548;47.210;8.618;2023-11-21T12:48:00;93686.38;;;19.25;34.33
70902;BME280;58548;47.210;8.618;2023-11-21T12:50:34;93686.44;;;19.35;34.10
70902;BME280;58548;47.210;8.618;2023-11-21T12:53:07;93767.41;;;20.01;33.82
70902;BME280;58548;47.210;8.618;2023-11-21T12:55:38;93734.00;;;20.00;34.19
70902;BME280;58548;47.210;8.618;2023-11-21T12:58:09;93691.34;;;19.97;34.02
70902;BME280;58548;47.210;8.618;2023-11-21T13:00:45;93777.53;;;20.73;33.35
70902;BME280;58548;47.210;8.618;2023-11-21T13:03:13;93691.75;;;20.31;32.93
70902;BME280;58548;47.210;8.618;2023-11-21T13:05:44;93767.81;;;20.89;32.61
70902;BME280;58548;47.210;8.618;2023-11-21T13:08:13;93775.25;;;20.92;32.54
70902;BME280;58548;47.210;8.618;2023-11-21T13:10:46;93685.13;;;20.34;31.67
70902;BME280;58548;47.210;8.618;2023-11-21T13:13:16;93694.94;;;20.33;31.77
70902;BME280;58548;47.210;8.618;2023-11-21T13:15:53;93686.41;;;20.21;31.60
70902;BME280;58548;47.210;8.618;2023-11-21T13:18:26;93754.38;;;20.48;31.67
70902;BME280;58548;47.210;8.618;2023-11-21T13:21:00;93758.03;;;20.37;31.51
70902;BME280;58548;47.210;8.618;2023-11-21T13:23:26;93780.81;;;20.27;31.76
70902;BME280;58548;47.210;8.618;2023-11-21T13:25:57;93694.53;;;19.61;32.55